createdAt,value
2022-12-03T00:01:07.786Z,75.23
2022-12-03T00:06:34.329Z,75.14
2022-12-03T00:11:55.478Z,75.14
2022-12-03T00:17:17.576Z,75.33
2022-12-03T00:22:38.546Z,75.12
2022-12-03T00:27:59.284Z,75.10
2022-12-03T00:33:20.856Z,75.41
2022-12-03T00:38:41.685Z,75.43
2022-12-03T00:44:03.203Z,75.29
2022-12-03T00:49:23.637Z,75.44
2022-12-03T00:54:45.447Z,75.57
2022-12-03T01:00:06.441Z,75.04
2022-12-03T01:05:28.041Z,75.42
2022-12-03T01:10:48.919Z,74.93
2022-12-03T01:16:09.970Z,75.30
2022-12-03T01:21:30.388Z,75.12
2022-12-03T01:26:51.574Z,75.68
2022-12-03T01:32:19.722Z,75.41
2022-12-03T01:37:40.366Z,75.56
2022-12-03T01:43:01.338Z,75.35
2022-12-03T01:48:22.573Z,75.37
2022-12-03T01:53:44.389Z,75.39
2022-12-03T01:59:05.135Z,75.36
2022-12-03T02:04:26.322Z,75.37
2022-12-03T02:09:47.206Z,75.28
2022-12-03T02:15:09.190Z,75.27
2022-12-03T02:20:31.211Z,75.47
2022-12-03T02:25:52.128Z,75.15
2022-12-03T02:31:13.057Z,75.00
2022-12-03T02:36:34.343Z,75.18
2022-12-03T02:42:13.729Z,75.20
2022-12-03T02:47:36.593Z,75.57
2022-12-03T02:52:58.360Z,75.35
2022-12-03T02:58:19.663Z,75.38
2022-12-03T03:03:40.597Z,75.58
2022-12-03T03:09:01.129Z,75.54
2022-12-03T03:14:22.243Z,75.76
2022-12-03T03:19:42.751Z,75.92
2022-12-03T03:25:04.642Z,75.46
2022-12-03T03:30:25.245Z,75.23
2022-12-03T03:35:47.576Z,75.39
2022-12-03T03:41:09.315Z,75.57
2022-12-03T03:46:30.085Z,75.82
2022-12-03T03:51:51.389Z,75.89
2022-12-03T03:57:12.252Z,75.87
2022-12-03T04:02:33.316Z,76.60
2022-12-03T04:07:53.715Z,75.39
2022-12-03T04:13:14.432Z,75.51
2022-12-03T04:18:44.448Z,75.61
2022-12-03T04:24:06.073Z,75.58
2022-12-03T04:29:26.895Z,76.02
2022-12-03T04:35:11.045Z,75.73
2022-12-03T04:41:04.087Z,75.21
2022-12-03T04:46:24.988Z,75.78
2022-12-03T04:51:45.574Z,74.95
2022-12-03T04:57:06.792Z,74.56
2022-12-03T05:02:27.374Z,74.68
2022-12-03T05:07:48.359Z,75.04
2022-12-03T05:13:09.167Z,74.64
2022-12-03T05:18:29.866Z,74.99
2022-12-03T05:23:50.799Z,74.96
2022-12-03T05:29:11.483Z,74.78
2022-12-03T05:34:32.349Z,75.16
2022-12-03T05:39:53.418Z,75.43
2022-12-03T05:45:14.274Z,75.70
2022-12-03T05:50:36.286Z,74.95
2022-12-03T05:56:07.965Z,74.89
2022-12-03T06:01:28.648Z,75.28
2022-12-03T06:06:49.984Z,74.93
2022-12-03T06:12:10.435Z,75.04
2022-12-03T06:17:31.281Z,74.88
2022-12-03T06:22:52.521Z,74.94
2022-12-03T06:28:12.977Z,74.72
2022-12-03T06:33:33.851Z,74.84
2022-12-03T06:38:54.750Z,75.12
2022-12-03T06:44:15.675Z,74.84
2022-12-03T06:49:36.711Z,74.86
2022-12-03T06:54:57.550Z,74.81
2022-12-03T07:00:18.752Z,74.95
2022-12-03T07:05:39.245Z,74.83
2022-12-03T07:11:00.185Z,74.86
2022-12-03T07:16:21.127Z,75.26
2022-12-03T07:21:41.895Z,75.34
2022-12-03T07:27:02.481Z,75.09
2022-12-03T07:32:23.155Z,75.36
2022-12-03T07:37:43.885Z,75.26
2022-12-03T07:43:05.108Z,76.00
2022-12-03T07:48:25.873Z,75.42
2022-12-03T07:53:46.828Z,75.34
2022-12-03T07:59:07.548Z,75.93
2022-12-03T08:04:28.699Z,75.23
2022-12-03T08:09:49.677Z,75.60
2022-12-03T08:15:13.928Z,74.62
2022-12-03T08:20:37.750Z,75.37
2022-12-03T08:26:02.175Z,74.91
2022-12-03T08:31:32.436Z,75.26
2022-12-03T08:37:02.058Z,74.69
2022-12-03T08:42:42.281Z,75.20
2022-12-03T08:48:05.941Z,74.49
2022-12-03T08:53:31.388Z,74.22
2022-12-03T08:58:53.992Z,74.90
2022-12-03T09:04:14.540Z,75.31
2022-12-03T09:09:35.863Z,75.25
2022-12-03T09:14:57.054Z,74.75
2022-12-03T09:20:18.113Z,74.67
2022-12-03T09:25:38.794Z,74.69
2022-12-03T09:30:59.646Z,74.73
2022-12-03T09:36:20.626Z,74.79
2022-12-03T09:41:41.197Z,74.42
2022-12-03T09:47:02.691Z,75.02
2022-12-03T09:52:28.101Z,74.39
2022-12-03T09:57:48.874Z,74.36
2022-12-03T10:03:14.032Z,74.61
2022-12-03T10:08:34.850Z,74.90
2022-12-03T10:13:56.791Z,74.69
2022-12-03T10:19:21.262Z,75.13
2022-12-03T10:24:41.905Z,74.49
2022-12-03T10:30:04.553Z,75.36
2022-12-03T10:35:35.844Z,74.13
2022-12-03T10:40:56.565Z,73.98
2022-12-03T10:46:18.808Z,74.63
2022-12-03T10:51:39.769Z,74.22
2022-12-03T10:57:01.812Z,74.29
2022-12-03T11:02:24.299Z,74.65
2022-12-03T11:07:45.265Z,74.65
2022-12-03T11:13:24.756Z,74.76
2022-12-03T11:18:54.839Z,79.93
2022-12-03T11:24:18.444Z,75.46
2022-12-03T11:29:59.462Z,74.02
2022-12-03T11:35:23.144Z,74.50
2022-12-03T11:41:03.883Z,74.53
2022-12-03T11:46:27.740Z,74.07
2022-12-03T11:51:49.016Z,73.42
2022-12-03T11:57:43.425Z,74.93
2022-12-03T12:03:04.105Z,74.43
2022-12-03T12:08:24.864Z,74.70
2022-12-03T12:13:59.368Z,74.25
2022-12-03T12:19:29.303Z,74.21
2022-12-03T12:24:55.074Z,74.48
2022-12-03T12:30:17.514Z,74.58
2022-12-03T12:35:38.338Z,78.86
2022-12-03T12:41:02.478Z,74.66
2022-12-03T12:46:47.196Z,74.53
2022-12-03T12:52:06.030Z,73.87
2022-12-03T12:57:26.846Z,73.93
2022-12-03T13:02:54.619Z,74.44
2022-12-03T13:08:23.761Z,73.44
2022-12-03T13:13:44.747Z,73.82
2022-12-03T13:19:13.222Z,74.16
2022-12-03T13:24:39.615Z,75.10
2022-12-03T13:30:08.966Z,74.88
2022-12-03T13:35:35.308Z,73.05
2022-12-03T13:41:01.407Z,74.01
2022-12-03T13:46:22.178Z,74.00
2022-12-03T13:51:44.286Z,74.10
2022-12-03T13:57:08.619Z,74.02
2022-12-03T14:02:29.312Z,74.70
2022-12-03T14:07:50.097Z,74.53
2022-12-03T14:13:10.831Z,74.14
2022-12-03T14:18:31.902Z,74.23
2022-12-03T14:23:52.459Z,74.47
2022-12-03T14:29:13.273Z,74.10
2022-12-03T14:34:34.088Z,74.50
2022-12-03T14:39:55.608Z,74.66
2022-12-03T14:45:16.292Z,74.65
2022-12-03T14:50:36.959Z,74.44
2022-12-03T14:55:59.128Z,74.59
2022-12-03T15:01:20.167Z,74.81
2022-12-03T15:06:40.971Z,75.04
2022-12-03T15:12:01.800Z,74.00
2022-12-03T15:17:30.900Z,74.18
2022-12-03T15:22:52.053Z,75.18
2022-12-03T15:28:13.074Z,74.42
2022-12-03T15:33:34.027Z,75.44
2022-12-03T15:38:54.741Z,75.14
2022-12-03T15:44:15.769Z,75.43
2022-12-03T15:49:36.632Z,75.29
2022-12-03T15:54:57.559Z,75.05
2022-12-03T16:00:18.159Z,74.79
2022-12-03T16:05:41.043Z,75.21
2022-12-03T16:11:01.602Z,75.48
2022-12-03T16:16:22.683Z,74.98
2022-12-03T16:21:43.312Z,75.37
2022-12-03T16:27:04.651Z,75.68
2022-12-03T16:32:25.342Z,75.79
2022-12-03T16:37:45.832Z,76.17
2022-12-03T16:43:08.517Z,75.56
2022-12-03T16:48:29.902Z,76.28
2022-12-03T16:53:50.664Z,75.76
2022-12-03T16:59:11.416Z,75.76
2022-12-03T17:04:32.106Z,75.67
2022-12-03T17:09:52.907Z,76.22
2022-12-03T17:15:14.202Z,76.22
2022-12-03T17:20:35.723Z,75.99
2022-12-03T17:25:56.498Z,75.66
2022-12-03T17:31:17.872Z,75.48
2022-12-03T17:42:22.469Z,75.65
2022-12-03T18:46:02.066Z,75.95
2022-12-03T18:51:24.760Z,76.42
2022-12-03T18:56:45.706Z,76.21
2022-12-03T19:02:07.863Z,76.17
2022-12-03T19:07:28.592Z,76.61
2022-12-03T19:12:49.550Z,76.90
2022-12-03T19:18:10.455Z,76.52
2022-12-03T19:23:31.208Z,76.17
2022-12-03T19:28:53.626Z,76.21
2022-12-03T19:34:14.653Z,76.91
2022-12-03T19:39:35.260Z,75.72
2022-12-03T19:44:56.201Z,76.63
2022-12-03T19:50:22.508Z,76.41
2022-12-03T19:55:44.494Z,77.32
2022-12-03T20:01:19.102Z,76.80
2022-12-03T20:06:39.761Z,75.79
2022-12-03T20:12:00.585Z,76.70
2022-12-03T20:17:21.779Z,75.89
2022-12-03T20:22:42.746Z,76.96
2022-12-03T20:28:03.543Z,75.80
2022-12-03T20:33:24.436Z,76.06
2022-12-03T20:38:45.330Z,76.27
2022-12-03T20:44:07.922Z,76.66
2022-12-03T20:49:28.937Z,76.94
2022-12-03T20:54:49.713Z,76.83
2022-12-03T21:00:10.490Z,76.17
2022-12-03T21:05:31.070Z,76.97
2022-12-03T21:10:51.797Z,76.43
2022-12-03T21:16:16.872Z,76.34
2022-12-03T21:21:37.666Z,77.52
2022-12-03T21:26:59.802Z,77.12
2022-12-03T21:32:20.302Z,77.22
2022-12-03T21:37:41.057Z,76.92
2022-12-03T21:43:01.899Z,77.70
2022-12-03T21:48:22.864Z,77.53
2022-12-03T21:53:43.699Z,77.55
2022-12-03T21:59:04.296Z,77.70
2022-12-03T22:04:24.875Z,77.50
2022-12-03T22:09:45.626Z,77.53
2022-12-03T22:15:06.724Z,77.67
2022-12-03T22:20:29.372Z,77.32
2022-12-03T22:26:00.900Z,77.39
2022-12-03T22:31:21.773Z,77.93
2022-12-03T22:36:42.644Z,76.99
2022-12-03T22:42:03.467Z,77.44
2022-12-03T22:47:24.336Z,77.61
2022-12-03T22:52:45.091Z,77.21
2022-12-03T22:58:06.425Z,77.65
2022-12-03T23:03:27.215Z,77.13
2022-12-03T23:08:48.583Z,76.87
2022-12-03T23:14:09.201Z,76.67
2022-12-03T23:19:30.200Z,76.82
2022-12-03T23:24:50.685Z,77.12
2022-12-03T23:30:12.124Z,77.70
2022-12-03T23:35:33.023Z,77.87
2022-12-03T23:40:53.991Z,77.82
2022-12-03T23:46:19.388Z,77.42
2022-12-03T23:51:40.310Z,77.28
2022-12-03T23:57:01.092Z,77.72
